Bei Facebook empfehlenBei Twitter postenGoogle plusPinterest

Das Wetter im Erzgebirge am 13.01.2016

Wetter und Klima am 13.01.2016 Holzhau im Erzgebirge (630m ü.NN)
Letzte gemessene Temperatur und Uhrzeit der Messung23:45:00 Uhr-2.80 °C
Temperatur (Maximum / Höchstwert) und Uhrzeit der Messung01:30:00 Uhr1.20 °C
Temperatur (Minimum / Tiefstwert) und Uhrzeit der Messung23:15:00-2.90 °C
Errechneter Absolutwert der Temperaturschwankungen zwischen Tmin und Tmax des Tages4.10 K
Errechnete Tagesmitteltemperatur0.01250 °C
Gesamt - Niederschlag des Tages (in flüssiger Form)0.00 Liter / m²
Luftdruck (Maximum / Höchstwert) und Zeitpunkt der Messung23:45:00 Uhr1009.70 hPa
Luftdruck (Minimum / Tiefstwert) und Zeitpunkt der Messung06:45:00 Uhr996.70 hPa
Errechneter Absolutwert der Luftdruckschwankungen des Tages13.00 hPa
Höchste gemessene Windgeschwindigkeit und Uhrzeit der Messung11:15:00 Uhr9.00 km/h
Errechnete Windhäufigkeit in Relation zu den Messwerten des Tages30.20833 %
Niedrigste Windkühle (Windchill) und Zeitpunkt der Messung23:15:00 Uhr-2.90 °C
Taupunkt (Maximum / Höchstwert) und Uhrzeit der Messung01:30:00 Uhr0.20 °C
Taupunkt (Minimum / Tiefstwert) und Uhrzeit der Messung23:15:00-3.80 °C
Anzahl der automatisch eingelesenen Messwerte 96

Detaillierte Wetter- und Klima- Messwerte für den 13.01.2016 in Holzhau im Erzgebirge (630m ü.NN)
ZeitTemperaturLuftdruckRel. LuftfeuchteWindWindrichtungWindchillTaupunktNiederschlag l/m²
23:45:00-2.80 °C1009.70 hPa94.00 %-3.70 °C 
23:30:00-2.80 °C1009.70 hPa94.00 %-3.70 °C 
23:15:00-2.90 °C1009.70 hPa94.00 %-3.80 °C 
23:00:00-2.80 °C1009.50 hPa94.00 %-3.70 °C 
22:45:00-2.40 °C1009.50 hPa94.00 %-3.30 °C 
22:30:00-2.10 °C1009.60 hPa94.00 %-3.00 °C 
22:15:00-1.90 °C1009.50 hPa94.00 %-2.80 °C 
22:00:00-1.90 °C1009.30 hPa94.00 %-2.80 °C 
21:45:00-1.90 °C1009.10 hPa94.00 %-2.80 °C 
21:30:00-1.90 °C1009.00 hPa94.00 %-2.80 °C 
21:15:00-1.70 °C1008.80 hPa95.00 %-2.50 °C 
21:00:00-1.60 °C1008.80 hPa95.00 %-2.40 °C 
20:45:00-1.50 °C1008.60 hPa95.00 %-2.30 °C 
20:30:00-1.40 °C1008.40 hPa95.00 %-2.20 °C 
20:15:00-1.30 °C1008.00 hPa95.00 %-2.10 °C 
20:00:00-1.20 °C1007.80 hPa95.00 %-2.00 °C 
19:45:00-1.10 °C1007.50 hPa95.00 %-1.90 °C 
19:30:00-0.90 °C1007.20 hPa95.00 %-1.70 °C 
19:15:00-0.70 °C1006.90 hPa95.00 %-1.50 °C 
19:00:00-0.70 °C1006.50 hPa95.00 %-1.50 °C 
18:45:00-0.40 °C1006.20 hPa95.00 %-1.20 °C 
18:30:00-0.40 °C1006.00 hPa95.00 %-1.20 °C 
18:15:00-0.20 °C1005.50 hPa95.00 %-1.00 °C 
18:00:00-0.10 °C1005.20 hPa95.00 %-0.90 °C 
17:45:00-0.10 °C1004.70 hPa95.00 %-0.90 °C 
17:30:00-0.10 °C1004.80 hPa95.00 %-0.90 °C 
17:15:000.10 °C1004.60 hPa95.00 %-0.60 °C 
17:00:000.10 °C1004.40 hPa95.00 %-0.60 °C 
16:45:000.10 °C1004.20 hPa95.00 %-0.60 °C 
16:30:000.20 °C1003.60 hPa95.00 %6.84 km/hWNW-2.10 °C-0.50 °C 
16:15:000.20 °C1003.40 hPa95.00 %4.68 km/hNW0.20 °C-0.50 °C 
16:00:000.30 °C1003.20 hPa95.00 %-0.40 °C 
15:45:000.30 °C1002.80 hPa95.00 %-0.40 °C 
15:30:000.30 °C1002.60 hPa95.00 %-0.40 °C 
15:15:000.30 °C1002.20 hPa95.00 %-0.40 °C 
15:00:000.30 °C1002.00 hPa95.00 %-0.40 °C 
14:45:000.20 °C1001.80 hPa95.00 %-0.50 °C 
14:30:000.10 °C1001.80 hPa95.00 %-0.60 °C 
14:15:000.20 °C1001.60 hPa94.00 %-0.60 °C 
14:00:000.20 °C1001.20 hPa94.00 %-0.60 °C 
13:45:000.20 °C1000.90 hPa94.00 %-0.60 °C 
13:30:000.20 °C1000.90 hPa94.00 %-0.60 °C 
13:15:000.30 °C1000.70 hPa94.00 %-0.50 °C 
13:00:000.20 °C1000.60 hPa94.00 %-0.60 °C 
12:45:000.30 °C1000.40 hPa94.00 %-0.50 °C 
12:30:000.30 °C999.90 hPa94.00 %-0.50 °C 
12:15:000.30 °C999.50 hPa94.00 %-0.50 °C 
12:00:000.30 °C999.30 hPa94.00 %-0.50 °C 
11:45:000.30 °C999.10 hPa94.00 %-0.50 °C 
11:30:000.30 °C998.80 hPa94.00 %2.88 km/hW0.30 °C-0.50 °C 
11:15:000.40 °C998.60 hPa93.00 %9.00 km/hSW-2.60 °C-0.60 °C 
11:00:000.40 °C998.20 hPa93.00 %6.84 km/hWNW-1.90 °C-0.60 °C 
10:45:000.60 °C997.90 hPa93.00 %-0.40 °C 
10:30:000.90 °C997.50 hPa93.00 %5.04 km/hW-0.60 °C-0.10 °C 
10:15:000.90 °C997.30 hPa93.00 %2.16 km/hWNW0.90 °C-0.10 °C 
10:00:000.70 °C997.00 hPa93.00 %8.28 km/hWSW-2.00 °C-0.30 °C 
09:45:000.60 °C997.00 hPa93.00 %-0.40 °C 
09:30:000.70 °C997.00 hPa93.00 %-0.30 °C 
09:15:000.80 °C996.90 hPa92.00 %-0.30 °C 
09:00:000.90 °C996.90 hPa92.00 %-0.20 °C 
08:45:000.90 °C997.00 hPa92.00 %-0.20 °C 
08:30:000.80 °C997.10 hPa93.00 %7.56 km/hSSW-1.70 °C-0.20 °C 
08:15:000.80 °C996.90 hPa93.00 %8.28 km/hSSW-1.90 °C-0.20 °C 
08:00:000.70 °C997.00 hPa93.00 %3.60 km/hSW0.70 °C-0.30 °C 
07:45:000.60 °C997.00 hPa93.00 %-0.40 °C 
07:30:000.60 °C996.90 hPa92.00 %7.56 km/hW-1.90 °C-0.50 °C 
07:15:000.50 °C996.80 hPa92.00 %4.32 km/hWSW0.50 °C-0.60 °C 
07:00:000.70 °C996.80 hPa92.00 %5.04 km/hWNW-0.80 °C-0.40 °C 
06:45:000.80 °C996.70 hPa92.00 %5.76 km/hWNW-1.00 °C-0.30 °C 
06:30:000.90 °C996.70 hPa92.00 %4.68 km/hWSW0.90 °C-0.20 °C 
06:15:000.90 °C997.00 hPa92.00 %-0.20 °C 
06:00:000.80 °C996.90 hPa92.00 %-0.30 °C 
05:45:000.70 °C997.00 hPa92.00 %-0.40 °C 
05:30:000.80 °C996.90 hPa92.00 %-0.30 °C 
05:15:000.80 °C996.80 hPa93.00 %3.24 km/hWNW0.80 °C-0.20 °C 
05:00:000.70 °C997.00 hPa93.00 %-0.30 °C 
04:45:000.60 °C996.90 hPa93.00 %-0.40 °C 
04:30:000.50 °C997.00 hPa93.00 %-0.50 °C 
04:15:000.40 °C996.90 hPa93.00 %2.52 km/hSW0.40 °C-0.60 °C 
04:00:000.40 °C997.00 hPa93.00 %2.52 km/hSSW0.40 °C-0.60 °C 
03:45:000.30 °C996.90 hPa92.00 %2.52 km/hWSW0.30 °C-0.80 °C 
03:30:000.50 °C997.00 hPa92.00 %2.88 km/hW0.50 °C-0.60 °C 
03:15:000.30 °C996.90 hPa92.00 %-0.80 °C 
03:00:000.20 °C997.00 hPa92.00 %-0.90 °C 
02:45:000.40 °C997.10 hPa92.00 %-0.70 °C 
02:30:000.50 °C997.00 hPa93.00 %5.76 km/hWNW-1.40 °C-0.50 °C 
02:15:000.60 °C996.90 hPa93.00 %-0.40 °C 
02:00:000.90 °C997.00 hPa93.00 %-0.10 °C 
01:45:001.10 °C997.00 hPa93.00 %1.80 km/hWNW1.10 °C0.10 °C 
01:30:001.20 °C997.00 hPa93.00 %6.12 km/hW-0.70 °C0.20 °C 
01:15:001.10 °C996.90 hPa93.00 %8.28 km/hWSW-1.50 °C0.10 °C 
01:00:001.00 °C997.10 hPa93.00 %8.64 km/hNW-1.80 °C0.00 °C 
00:45:000.90 °C997.10 hPa93.00 %6.12 km/hSSW-1.00 °C-0.10 °C 
00:30:000.90 °C997.00 hPa93.00 %3.60 km/hWSW0.90 °C-0.10 °C 
00:15:000.90 °C997.30 hPa93.00 %-0.10 °C 
00:00:000.80 °C997.30 hPa93.00 %4.32 km/hNW0.80 °C-0.20 °C 

Permanenter Link zu dieser Seite: Wetter im Erzgebirge am 13.01.2016
Performance-Info: Die Erstellung der Seite / Statistik(en) / Tabelle(n) erforderte 5 Datenbankserver-Abfrage(n) und dauerte 124 Millisekunden. (Dieser Messwert ist von der Gesamt-Auslastung des Servers abhängig.)
Erzgebirge - Wetter | Erzgebirge - Wetter (Mobilgeräte) | Komplette Klimadatenbank